createdAt,value
2023-02-27T00:02:19.879Z,2.75
2023-02-27T00:04:50.182Z,2.40
2023-02-27T00:07:19.893Z,3.13
2023-02-27T00:09:49.251Z,3.33
2023-02-27T00:12:18.667Z,2.63
2023-02-27T00:14:48.084Z,2.70
2023-02-27T00:17:20.136Z,3.13
2023-02-27T00:19:49.521Z,3.35
2023-02-27T00:22:18.912Z,3.03
2023-02-27T00:24:48.323Z,2.40
2023-02-27T00:27:17.710Z,2.90
2023-02-27T00:29:47.137Z,2.97
2023-02-27T00:32:16.640Z,2.17
2023-02-27T00:34:48.748Z,2.70
2023-02-27T00:37:18.547Z,2.22
2023-02-27T00:39:47.958Z,2.10
2023-02-27T00:42:17.330Z,2.42
2023-02-27T00:44:46.754Z,2.70
2023-02-27T00:47:16.191Z,2.95
2023-02-27T00:49:48.198Z,2.50
2023-02-27T00:52:17.646Z,2.28
2023-02-27T00:54:47.101Z,2.20
2023-02-27T00:57:16.522Z,2.25
2023-02-27T00:59:46.660Z,1.88
2023-02-27T01:02:16.252Z,2.70
2023-02-27T01:04:48.214Z,2.22
2023-02-27T01:07:17.600Z,3.13
2023-02-27T01:09:47.160Z,4.20
2023-02-27T01:12:16.552Z,2.85
2023-02-27T01:14:46.524Z,3.30
2023-02-27T01:17:18.862Z,2.60
2023-02-27T01:19:50.923Z,2.72
2023-02-27T01:22:20.345Z,2.75
2023-02-27T01:24:49.773Z,2.92
2023-02-27T01:27:19.359Z,2.58
2023-02-27T01:29:48.765Z,2.63
2023-02-27T01:32:18.226Z,2.83
2023-02-27T01:34:50.379Z,2.10
2023-02-27T01:37:20.710Z,2.90
2023-02-27T01:39:50.154Z,2.65
2023-02-27T01:42:22.472Z,2.70
2023-02-27T01:45:28.009Z,2.65
2023-02-27T01:48:00.652Z,2.70
2023-02-27T01:50:33.300Z,4.25
2023-02-27T01:53:04.239Z,3.30
2023-02-27T01:55:37.910Z,2.80
2023-02-27T01:58:08.414Z,2.97
2023-02-27T02:00:37.952Z,3.00
2023-02-27T02:03:31.295Z,3.10
2023-02-27T02:06:06.177Z,3.15
2023-02-27T02:08:38.256Z,2.70
2023-02-27T02:11:09.151Z,3.58
2023-02-27T02:13:39.898Z,3.97
2023-02-27T02:16:18.882Z,2.90
2023-02-27T02:18:54.320Z,3.08
2023-02-27T02:21:55.750Z,2.83
2023-02-27T02:24:50.127Z,2.92
2023-02-27T02:27:29.989Z,2.50
2023-02-27T02:30:49.882Z,2.90
2023-02-27T02:33:41.672Z,2.53
2023-02-27T02:36:37.843Z,2.38
2023-02-27T02:39:26.175Z,3.00
2023-02-27T02:42:02.835Z,2.85
2023-02-27T02:44:39.404Z,2.88
2023-02-27T02:47:13.831Z,3.25
2023-02-27T02:49:48.008Z,3.50
2023-02-27T02:52:24.324Z,3.17
2023-02-27T02:55:00.879Z,2.88
2023-02-27T02:57:33.603Z,2.63
2023-02-27T03:00:06.098Z,3.35
2023-02-27T03:02:38.613Z,2.58
2023-02-27T03:05:10.284Z,2.80
2023-02-27T03:07:42.143Z,3.80
2023-02-27T03:10:17.515Z,3.50
2023-02-27T03:12:49.512Z,3.20
2023-02-27T03:15:22.919Z,2.55
2023-02-27T03:17:55.417Z,3.42
2023-02-27T03:20:27.090Z,3.15
2023-02-27T03:22:59.952Z,3.10
2023-02-27T03:25:32.339Z,2.80
2023-02-27T03:28:04.318Z,3.25
2023-02-27T03:30:36.094Z,3.10
2023-02-27T03:33:09.210Z,3.50
2023-02-27T03:35:46.206Z,2.92
2023-02-27T03:38:21.625Z,3.55
2023-02-27T03:40:58.958Z,3.13
2023-02-27T03:43:33.800Z,5.03
2023-02-27T03:46:07.448Z,3.28
2023-02-27T03:48:37.212Z,3.35
2023-02-27T03:51:06.853Z,3.20
2023-02-27T03:53:39.286Z,3.20
2023-02-27T03:56:12.179Z,4.00
2023-02-27T03:58:41.583Z,4.00
2023-02-27T04:01:11.005Z,3.90
2023-02-27T04:03:44.465Z,4.50
2023-02-27T04:06:26.118Z,41.28
2023-02-27T04:09:03.978Z,15.73
2023-02-27T04:12:09.814Z,4.35
2023-02-27T04:14:52.565Z,4.35
2023-02-27T04:17:25.292Z,4.22
2023-02-27T04:20:15.586Z,3.85
2023-02-27T04:22:48.783Z,4.47
2023-02-27T04:25:49.580Z,4.05
2023-02-27T04:28:27.777Z,4.43
2023-02-27T04:31:13.318Z,3.88
2023-02-27T04:33:46.949Z,4.25
2023-02-27T04:36:20.822Z,4.25
2023-02-27T04:38:52.432Z,4.38
2023-02-27T04:41:24.772Z,4.72
2023-02-27T04:43:57.910Z,4.28
2023-02-27T04:46:29.360Z,3.95
2023-02-27T04:49:02.649Z,4.20
2023-02-27T04:51:36.350Z,4.10
2023-02-27T04:54:09.258Z,5.05
2023-02-27T04:56:41.113Z,3.92
2023-02-27T04:59:16.366Z,4.68
2023-02-27T05:01:49.471Z,4.65
2023-02-27T05:04:22.752Z,4.28
2023-02-27T05:06:53.402Z,4.80
2023-02-27T05:09:29.352Z,5.18
2023-02-27T05:12:03.217Z,4.40
2023-02-27T05:14:39.531Z,4.97
2023-02-27T05:17:10.683Z,4.53
2023-02-27T05:19:41.751Z,4.65
2023-02-27T05:22:19.281Z,5.00
2023-02-27T05:24:53.676Z,4.47
2023-02-27T05:27:27.583Z,4.75
2023-02-27T05:30:02.035Z,5.35
2023-02-27T05:32:36.750Z,4.72
2023-02-27T05:35:13.626Z,5.00
2023-02-27T05:37:46.601Z,5.00
2023-02-27T05:40:20.038Z,5.20
2023-02-27T05:42:55.716Z,4.90
2023-02-27T05:45:30.228Z,5.20
2023-02-27T05:48:03.260Z,4.32
2023-02-27T05:50:35.304Z,5.38
2023-02-27T05:53:07.533Z,5.18
2023-02-27T05:55:39.203Z,5.72
2023-02-27T05:58:15.751Z,5.60
2023-02-27T06:00:51.043Z,5.78
2023-02-27T06:03:20.860Z,5.55
2023-02-27T06:05:53.034Z,5.68
2023-02-27T06:08:23.735Z,5.00
2023-02-27T06:10:55.222Z,5.53
2023-02-27T06:13:26.104Z,5.50
2023-02-27T06:15:58.121Z,6.15
2023-02-27T06:18:27.551Z,6.13
2023-02-27T06:20:57.450Z,6.03
2023-02-27T06:23:26.854Z,5.97
2023-02-27T06:25:56.365Z,5.50
2023-02-27T06:28:25.777Z,5.65
2023-02-27T06:30:58.868Z,5.90
2023-02-27T06:33:28.698Z,5.60
2023-02-27T06:35:58.154Z,6.18
2023-02-27T06:38:27.536Z,6.40
2023-02-27T06:40:56.957Z,6.50
2023-02-27T06:43:26.343Z,6.53
2023-02-27T06:45:59.171Z,6.20
2023-02-27T06:48:28.895Z,6.53
2023-02-27T06:50:58.981Z,5.60
2023-02-27T06:53:28.752Z,6.47
2023-02-27T06:55:58.163Z,6.80
2023-02-27T06:58:27.686Z,6.63
2023-02-27T07:01:01.609Z,7.70
2023-02-27T07:03:31.180Z,6.85
2023-02-27T07:06:02.440Z,6.63
2023-02-27T07:08:31.998Z,7.20
2023-02-27T07:11:01.776Z,7.28
2023-02-27T07:13:31.172Z,6.85
2023-02-27T07:16:03.230Z,7.68
2023-02-27T07:18:32.648Z,7.45
2023-02-27T07:21:02.115Z,6.72
2023-02-27T07:23:32.485Z,7.18
2023-02-27T07:26:01.886Z,8.32
2023-02-27T07:28:31.348Z,7.20
2023-02-27T07:31:03.583Z,7.90
2023-02-27T07:33:34.061Z,9.15
2023-02-27T07:36:03.495Z,8.43
2023-02-27T07:38:32.949Z,8.70
2023-02-27T07:41:02.310Z,7.32
2023-02-27T07:43:31.730Z,7.13
2023-02-27T07:46:04.148Z,8.10
2023-02-27T07:48:33.689Z,6.78
2023-02-27T07:51:03.512Z,6.75
2023-02-27T07:53:32.916Z,7.20
2023-02-27T07:56:02.323Z,6.53
2023-02-27T07:58:31.747Z,6.95
2023-02-27T08:01:03.720Z,6.38
2023-02-27T08:03:33.160Z,7.07
2023-02-27T08:06:02.679Z,6.80
2023-02-27T08:08:32.322Z,6.90
2023-02-27T08:11:01.748Z,7.20
2023-02-27T08:13:59.037Z,6.13
2023-02-27T08:16:23.278Z,6.45
2023-02-27T08:18:52.707Z,7.22
2023-02-27T08:21:22.117Z,6.22
2023-02-27T08:23:51.598Z,6.50
2023-02-27T08:26:21.441Z,6.60
2023-02-27T08:28:51.055Z,7.63
2023-02-27T08:31:23.589Z,7.93
2023-02-27T08:34:01.259Z,6.00
2023-02-27T08:36:38.507Z,4.90
2023-02-27T08:39:08.770Z,5.55
2023-02-27T08:41:38.596Z,5.30
2023-02-27T08:44:08.163Z,5.50
2023-02-27T08:46:40.197Z,5.75
2023-02-27T08:49:09.647Z,4.97
2023-02-27T08:51:39.069Z,4.88
2023-02-27T08:54:08.622Z,5.03
2023-02-27T08:56:38.031Z,5.45
2023-02-27T08:59:07.482Z,5.57
2023-02-27T09:01:36.979Z,5.10
2023-02-27T09:04:09.845Z,5.90
2023-02-27T09:06:39.654Z,4.70
2023-02-27T09:09:09.513Z,3.97
2023-02-27T09:11:39.214Z,3.77
2023-02-27T09:14:09.046Z,3.70
2023-02-27T09:16:38.620Z,3.70
2023-02-27T09:19:10.648Z,4.17
2023-02-27T09:21:40.188Z,3.90
2023-02-27T09:24:19.929Z,3.07
2023-02-27T09:26:50.426Z,3.20
2023-02-27T09:29:20.079Z,3.60
2023-02-27T09:31:49.770Z,4.50
2023-02-27T09:34:21.863Z,3.43
2023-02-27T09:36:51.271Z,2.97
2023-02-27T09:39:21.470Z,3.40
2023-02-27T09:41:58.315Z,2.60
2023-02-27T09:44:45.783Z,3.70
2023-02-27T09:47:19.074Z,4.37
2023-02-27T09:50:09.332Z,3.10
2023-02-27T09:52:40.420Z,3.07
2023-02-27T09:55:16.390Z,2.93
2023-02-27T09:57:50.005Z,3.37
2023-02-27T10:00:31.000Z,3.60
2023-02-27T10:03:03.847Z,4.57
2023-02-27T10:05:39.478Z,2.53
2023-02-27T10:08:15.066Z,3.30
2023-02-27T10:10:50.426Z,2.50
2023-02-27T10:13:36.980Z,3.17
2023-02-27T10:16:07.920Z,2.90
2023-02-27T10:18:42.822Z,2.17
2023-02-27T10:21:18.532Z,2.30
2023-02-27T10:23:53.963Z,2.40
2023-02-27T10:26:25.005Z,2.20
2023-02-27T10:28:54.629Z,2.50
2023-02-27T10:31:27.824Z,5.50
2023-02-27T10:33:58.405Z,2.50
2023-02-27T10:36:34.389Z,2.63
2023-02-27T10:39:07.517Z,2.27
2023-02-27T10:41:38.153Z,2.03
2023-02-27T10:44:09.753Z,2.30
2023-02-27T10:46:40.505Z,1.83
2023-02-27T10:49:19.201Z,1.83
2023-02-27T10:52:07.953Z,2.00
2023-02-27T10:54:37.747Z,1.70
2023-02-27T10:57:10.364Z,2.73
2023-02-27T10:59:41.783Z,3.10
2023-02-27T11:02:24.566Z,2.03
2023-02-27T11:04:56.292Z,2.70
2023-02-27T11:07:37.275Z,5.00
2023-02-27T11:10:19.571Z,4.37
2023-02-27T11:13:01.402Z,2.50
2023-02-27T11:15:32.500Z,3.03
2023-02-27T11:18:21.951Z,3.47
2023-02-27T11:20:52.540Z,3.60
2023-02-27T11:23:26.069Z,3.03
2023-02-27T11:26:12.582Z,3.23
2023-02-27T11:28:42.016Z,3.53
2023-02-27T11:31:18.891Z,3.50
2023-02-27T11:33:53.196Z,3.00
2023-02-27T11:36:23.708Z,2.53
2023-02-27T11:38:57.167Z,3.70
2023-02-27T11:41:33.180Z,3.10
2023-02-27T11:44:03.351Z,2.93
2023-02-27T11:46:46.295Z,3.00
2023-02-27T11:49:28.198Z,3.50
2023-02-27T11:52:02.413Z,2.93
2023-02-27T11:54:40.370Z,3.07
2023-02-27T11:57:17.600Z,2.40
2023-02-27T11:59:49.835Z,2.50
2023-02-27T12:02:25.289Z,2.33
2023-02-27T12:04:58.029Z,2.27
2023-02-27T12:07:30.163Z,2.10
2023-02-27T12:10:07.545Z,2.60
2023-02-27T12:12:44.132Z,2.60
2023-02-27T12:15:22.698Z,2.60
2023-02-27T12:17:55.209Z,2.60
2023-02-27T12:20:29.187Z,2.30
2023-02-27T12:22:58.900Z,1.80
2023-02-27T12:25:38.126Z,1.20
2023-02-27T12:28:15.492Z,2.20
2023-02-27T12:30:49.789Z,2.20
2023-02-27T12:33:24.923Z,1.30
2023-02-27T12:35:57.614Z,1.40
2023-02-27T12:38:27.342Z,1.60
2023-02-27T12:41:08.198Z,1.60
2023-02-27T12:43:43.627Z,2.40
2023-02-27T12:46:26.169Z,1.60
2023-02-27T12:49:20.419Z,1.47
2023-02-27T12:51:55.176Z,2.20
2023-02-27T12:54:39.580Z,1.90
2023-02-27T12:57:30.753Z,2.50
2023-02-27T13:00:09.731Z,2.07
2023-02-27T13:03:01.744Z,1.30
2023-02-27T13:05:38.432Z,2.17
2023-02-27T13:08:15.033Z,1.47
2023-02-27T13:10:48.773Z,1.70
2023-02-27T13:13:25.566Z,1.60
2023-02-27T13:15:59.536Z,1.70
2023-02-27T13:18:45.458Z,1.67
2023-02-27T13:21:16.320Z,1.30
2023-02-27T13:23:58.891Z,1.73
2023-02-27T13:26:31.685Z,1.50
2023-02-27T13:29:03.924Z,1.90
2023-02-27T13:31:38.438Z,1.57
2023-02-27T13:34:16.785Z,1.93
2023-02-27T13:36:48.118Z,1.83
2023-02-27T13:39:43.768Z,1.90
2023-02-27T13:42:58.232Z,1.63
2023-02-27T13:46:03.394Z,1.60
2023-02-27T13:48:52.017Z,2.10
2023-02-27T13:51:51.425Z,2.30
2023-02-27T13:54:42.235Z,5.60
2023-02-27T13:57:22.335Z,4.37
2023-02-27T14:00:04.829Z,2.10
2023-02-27T14:02:58.772Z,1.90
2023-02-27T14:05:37.494Z,2.17
2023-02-27T14:08:11.346Z,1.43
2023-02-27T14:10:42.991Z,1.80
2023-02-27T14:13:42.514Z,3.00
2023-02-27T14:16:12.071Z,1.80
2023-02-27T14:19:24.248Z,1.60
2023-02-27T14:22:01.581Z,2.17
2023-02-27T14:24:38.249Z,2.27
2023-02-27T14:27:09.019Z,2.77
2023-02-27T14:29:38.592Z,3.33
2023-02-27T14:32:09.581Z,1.77
2023-02-27T14:34:41.497Z,1.27
2023-02-27T14:37:17.745Z,1.43
2023-02-27T14:39:50.895Z,1.33
2023-02-27T14:42:36.003Z,1.40
2023-02-27T14:45:05.894Z,1.50
2023-02-27T14:47:37.816Z,1.67
2023-02-27T14:50:09.740Z,1.70
2023-02-27T14:52:46.408Z,1.53
2023-02-27T14:55:21.962Z,1.67
2023-02-27T14:57:59.188Z,1.80
2023-02-27T15:00:38.509Z,2.17
2023-02-27T15:03:15.213Z,2.23
2023-02-27T15:05:44.867Z,1.97
2023-02-27T15:08:22.567Z,2.27
2023-02-27T15:10:52.429Z,2.17
2023-02-27T15:13:28.286Z,3.40
2023-02-27T15:16:21.898Z,3.70
2023-02-27T15:18:52.398Z,3.50
2023-02-27T15:21:24.649Z,3.10
2023-02-27T15:24:01.637Z,3.70
2023-02-27T15:26:32.689Z,3.30
2023-02-27T15:29:02.111Z,3.30
2023-02-27T15:31:32.370Z,3.23
2023-02-27T15:34:03.914Z,2.40
2023-02-27T15:36:35.344Z,3.30
2023-02-27T15:39:18.290Z,2.60
2023-02-27T15:41:48.790Z,2.90
2023-02-27T15:44:18.766Z,3.53
2023-02-27T15:46:48.739Z,3.47
2023-02-27T15:49:20.618Z,3.87
2023-02-27T15:51:51.886Z,3.80
2023-02-27T15:54:24.420Z,3.57
2023-02-27T15:56:54.966Z,3.70
2023-02-27T15:59:25.355Z,3.30
2023-02-27T16:01:54.859Z,3.77
2023-02-27T16:04:45.389Z,3.30
2023-02-27T16:07:18.423Z,4.33
2023-02-27T16:09:51.638Z,4.23
2023-02-27T16:12:26.962Z,2.93
2023-02-27T16:15:17.492Z,3.07
2023-02-27T16:17:59.823Z,2.80
2023-02-27T16:20:38.850Z,2.73
2023-02-27T16:23:09.597Z,3.90
2023-02-27T16:25:42.631Z,3.67
2023-02-27T16:28:15.785Z,2.90
2023-02-27T16:30:45.366Z,3.00
2023-02-27T16:33:23.439Z,3.27
2023-02-27T16:35:53.211Z,3.40
2023-02-27T16:38:22.666Z,2.80
2023-02-27T16:40:54.848Z,2.60
2023-02-27T16:43:24.299Z,3.10
2023-02-27T16:45:56.404Z,12.97
2023-02-27T16:48:25.867Z,8.73
2023-02-27T16:50:55.241Z,8.63
2023-02-27T16:53:24.614Z,3.63
2023-02-27T16:55:56.608Z,4.37
2023-02-27T16:58:26.026Z,4.80
2023-02-27T17:00:55.549Z,4.70
2023-02-27T17:03:24.991Z,3.70
2023-02-27T17:05:57.717Z,3.13
2023-02-27T17:08:27.202Z,2.50
2023-02-27T17:10:59.791Z,2.50
2023-02-27T17:13:29.156Z,2.30
2023-02-27T17:15:58.572Z,2.63
2023-02-27T17:18:28.076Z,2.40
2023-02-27T17:20:58.786Z,2.30
2023-02-27T17:23:28.284Z,2.40
2023-02-27T17:26:00.379Z,2.77
2023-02-27T17:28:29.834Z,2.17
2023-02-27T17:30:59.259Z,3.23
2023-02-27T17:33:28.739Z,2.33
2023-02-27T17:36:04.344Z,2.47
2023-02-27T17:38:33.804Z,2.37
2023-02-27T17:41:09.253Z,2.40
2023-02-27T17:43:38.709Z,2.37
2023-02-27T17:46:08.794Z,2.50
2023-02-27T17:48:38.313Z,2.90
2023-02-27T17:51:08.476Z,2.47
2023-02-27T17:53:39.025Z,3.23
2023-02-27T17:56:12.086Z,5.53
2023-02-27T17:58:41.648Z,3.90
2023-02-27T18:01:12.916Z,4.50
2023-02-27T18:03:44.150Z,4.63
2023-02-27T18:06:13.515Z,4.60
2023-02-27T18:08:43.088Z,4.40
2023-02-27T18:11:15.875Z,3.90
2023-02-27T18:13:45.787Z,4.50
2023-02-27T18:16:15.450Z,3.90
2023-02-27T18:18:45.785Z,4.80
2023-02-27T18:21:17.437Z,4.50
2023-02-27T18:23:46.930Z,5.47
2023-02-27T18:26:29.562Z,4.87
2023-02-27T18:29:01.132Z,4.87
2023-02-27T18:31:32.583Z,4.10
2023-02-27T18:34:02.283Z,4.10
2023-02-27T18:36:32.505Z,3.97
2023-02-27T18:39:02.642Z,3.20
2023-02-27T18:41:35.012Z,4.10
2023-02-27T18:44:04.452Z,3.10
2023-02-27T18:46:33.871Z,3.20
2023-02-27T18:49:03.857Z,2.80
2023-02-27T18:51:33.267Z,3.40
2023-02-27T18:54:04.470Z,3.03
2023-02-27T18:56:36.453Z,4.50
2023-02-27T18:59:06.924Z,4.20
2023-02-27T19:01:38.081Z,2.97
2023-02-27T19:04:09.797Z,3.50
2023-02-27T19:06:42.246Z,3.03
2023-02-27T19:09:15.909Z,6.30
2023-02-27T19:11:48.464Z,4.17
2023-02-27T19:14:18.692Z,7.63
2023-02-27T19:16:50.792Z,4.63
2023-02-27T19:19:20.954Z,5.30
2023-02-27T19:21:50.637Z,5.83
2023-02-27T19:24:20.091Z,5.93
2023-02-27T19:26:53.483Z,5.23
2023-02-27T19:29:23.142Z,6.07
2023-02-27T19:31:52.605Z,6.00
2023-02-27T19:34:22.188Z,6.37
2023-02-27T19:36:51.563Z,5.70
2023-02-27T19:39:22.272Z,5.40
2023-02-27T19:41:54.214Z,5.87
2023-02-27T19:44:23.595Z,4.80
2023-02-27T19:46:53.411Z,7.07
2023-02-27T19:49:22.827Z,6.53
2023-02-27T19:51:53.214Z,9.30
2023-02-27T19:54:22.655Z,12.03
2023-02-27T19:56:55.360Z,12.53
2023-02-27T19:59:24.828Z,11.27
2023-02-27T20:01:54.846Z,15.90
2023-02-27T20:04:24.320Z,11.70
2023-02-27T20:06:53.909Z,11.00
2023-02-27T20:09:23.378Z,9.93
2023-02-27T20:11:59.230Z,9.63
2023-02-27T20:14:28.690Z,7.20
2023-02-27T20:16:58.308Z,7.03
2023-02-27T20:19:27.770Z,6.80
2023-02-27T20:21:57.210Z,8.07
2023-02-27T20:24:27.384Z,8.20
2023-02-27T20:27:00.417Z,6.67
2023-02-27T20:29:30.073Z,6.20
2023-02-27T20:32:00.245Z,5.33
2023-02-27T20:34:29.879Z,7.27
2023-02-27T20:37:00.287Z,9.70
2023-02-27T20:39:30.703Z,9.83
2023-02-27T20:42:02.671Z,9.13
2023-02-27T20:44:32.061Z,8.00
2023-02-27T20:47:01.468Z,11.13
2023-02-27T20:49:30.912Z,11.73
2023-02-27T20:52:00.492Z,12.90
2023-02-27T20:54:29.923Z,13.60
2023-02-27T20:57:01.957Z,13.50
2023-02-27T20:59:31.617Z,15.03
2023-02-27T21:02:02.279Z,13.60
2023-02-27T21:04:42.685Z,16.40
2023-02-27T21:07:13.504Z,13.97
2023-02-27T21:09:43.138Z,15.40
2023-02-27T21:12:15.714Z,12.67
2023-02-27T21:14:46.578Z,13.90
2023-02-27T21:17:16.239Z,8.20
2023-02-27T21:19:45.657Z,11.63
2023-02-27T21:22:16.354Z,9.20
2023-02-27T21:24:46.858Z,10.23
2023-02-27T21:27:22.008Z,16.40
2023-02-27T21:29:51.467Z,15.67
2023-02-27T21:32:21.259Z,17.20
2023-02-27T21:34:50.687Z,8.10
2023-02-27T21:37:20.106Z,10.40
2023-02-27T21:39:52.523Z,9.03
2023-02-27T21:42:24.895Z,8.47
2023-02-27T21:44:54.291Z,7.97
2023-02-27T21:47:23.722Z,7.53
2023-02-27T21:49:53.143Z,7.67
2023-02-27T21:52:22.605Z,8.03
2023-02-27T21:54:54.080Z,7.80
2023-02-27T21:57:26.307Z,8.83
2023-02-27T21:59:55.684Z,8.00
2023-02-27T22:02:25.185Z,7.13
2023-02-27T22:04:54.565Z,7.43
2023-02-27T22:07:24.034Z,6.77
2023-02-27T22:09:53.459Z,7.97
2023-02-27T22:12:22.964Z,8.53
2023-02-27T22:14:54.998Z,7.27
2023-02-27T22:17:24.440Z,8.30
2023-02-27T22:19:53.850Z,8.50
2023-02-27T22:22:23.312Z,7.50
2023-02-27T22:24:52.738Z,7.60
2023-02-27T22:27:22.189Z,7.07
2023-02-27T22:29:51.572Z,6.63
2023-02-27T22:32:23.630Z,6.87
2023-02-27T22:34:53.120Z,6.43
2023-02-27T22:37:23.425Z,7.57
2023-02-27T22:39:52.812Z,5.23
2023-02-27T22:42:22.206Z,6.17
2023-02-27T22:44:51.955Z,6.07
2023-02-27T22:47:23.959Z,6.60
2023-02-27T22:49:53.492Z,5.60
2023-02-27T22:52:22.959Z,7.00
2023-02-27T22:54:53.004Z,6.83
2023-02-27T22:57:22.432Z,6.10
2023-02-27T22:59:52.461Z,4.93
2023-02-27T23:02:24.483Z,5.07
2023-02-27T23:04:53.906Z,4.93
2023-02-27T23:07:23.329Z,5.43
2023-02-27T23:09:52.692Z,4.70
2023-02-27T23:12:22.139Z,4.10
2023-02-27T23:14:51.558Z,5.13
2023-02-27T23:17:20.970Z,3.90
2023-02-27T23:19:52.982Z,5.00
2023-02-27T23:22:22.449Z,4.80
2023-02-27T23:24:51.841Z,4.40
2023-02-27T23:27:26.201Z,4.40
2023-02-27T23:29:55.971Z,5.47
2023-02-27T23:32:25.392Z,6.30
2023-02-27T23:34:57.389Z,5.17
2023-02-27T23:37:26.806Z,9.80
2023-02-27T23:39:56.167Z,5.57
2023-02-27T23:42:25.573Z,6.10
2023-02-27T23:44:54.930Z,6.40
2023-02-27T23:47:36.865Z,4.60
2023-02-27T23:50:10.482Z,5.57
2023-02-27T23:52:39.974Z,4.57
2023-02-27T23:55:10.325Z,5.20
2023-02-27T23:57:39.768Z,4.57
